createdAt,value
2022-09-09T00:01:55.285Z,13.30
2022-09-09T00:04:33.708Z,13.27
2022-09-09T00:07:25.136Z,13.26
2022-09-09T00:10:09.928Z,13.31
2022-09-09T00:12:56.953Z,13.27
2022-09-09T00:15:44.668Z,13.29
2022-09-09T00:18:24.466Z,13.26
2022-09-09T00:20:59.443Z,13.18
2022-09-09T00:23:31.384Z,13.14
2022-09-09T00:26:42.041Z,13.13
2022-09-09T00:29:34.477Z,13.17
2022-09-09T00:32:13.479Z,13.16
2022-09-09T00:34:48.293Z,13.20
2022-09-09T00:37:15.260Z,13.18
2022-09-09T00:39:48.857Z,13.18
2022-09-09T00:42:17.319Z,13.11
2022-09-09T00:45:02.548Z,13.08
2022-09-09T00:47:40.997Z,13.07
2022-09-09T00:50:33.897Z,13.10
2022-09-09T00:53:06.950Z,12.96
2022-09-09T00:56:09.246Z,12.88
2022-09-09T00:58:35.962Z,12.67
2022-09-09T01:01:10.298Z,12.65
2022-09-09T01:04:03.205Z,12.62
2022-09-09T01:06:40.280Z,12.59
2022-09-09T01:09:23.732Z,12.64
2022-09-09T01:12:15.919Z,12.59
2022-09-09T01:15:31.397Z,12.54
2022-09-09T01:18:27.313Z,12.61
2022-09-09T01:21:23.098Z,12.61
2022-09-09T01:23:59.926Z,12.65
2022-09-09T01:26:38.954Z,12.71
2022-09-09T01:29:09.949Z,12.70
2022-09-09T01:31:42.358Z,12.69
2022-09-09T01:34:12.921Z,12.70
2022-09-09T01:36:54.447Z,12.70
2022-09-09T01:39:21.885Z,12.70
2022-09-09T01:41:48.603Z,12.63
2022-09-09T01:44:15.477Z,12.60
2022-09-09T01:46:42.111Z,12.59
2022-09-09T01:49:09.646Z,12.57
2022-09-09T01:51:40.287Z,12.53
2022-09-09T01:54:07.885Z,12.50
2022-09-09T01:56:50.669Z,12.55
2022-09-09T01:59:51.748Z,12.51
2022-09-09T02:03:03.405Z,12.51
2022-09-09T02:05:56.343Z,12.48
2022-09-09T02:08:34.281Z,12.50
2022-09-09T02:11:06.102Z,12.54
2022-09-09T02:13:35.457Z,12.47
2022-09-09T02:16:08.905Z,12.45
2022-09-09T02:18:45.949Z,12.46
2022-09-09T02:21:14.742Z,12.47
2022-09-09T02:23:43.795Z,12.43
2022-09-09T02:26:14.351Z,12.49
2022-09-09T02:28:43.156Z,12.42
2022-09-09T02:31:10.230Z,12.40
2022-09-09T02:33:42.474Z,12.41
2022-09-09T02:36:11.916Z,12.51
2022-09-09T02:38:47.297Z,12.55
2022-09-09T02:41:13.801Z,12.51
2022-09-09T02:43:40.325Z,12.43
2022-09-09T02:47:02.289Z,12.41
2022-09-09T02:50:12.831Z,12.27
2022-09-09T02:53:31.653Z,12.21
2022-09-09T02:56:10.230Z,12.20
2022-09-09T02:58:37.717Z,12.13
2022-09-09T03:01:04.526Z,12.12
2022-09-09T03:03:31.367Z,12.07
2022-09-09T03:05:58.074Z,12.06
2022-09-09T03:08:24.786Z,12.12
2022-09-09T03:10:51.543Z,12.11
2022-09-09T03:13:20.421Z,12.08
2022-09-09T03:15:49.325Z,12.11
2022-09-09T03:18:15.880Z,12.14
2022-09-09T03:20:43.131Z,12.20
2022-09-09T03:23:14.972Z,12.18
2022-09-09T03:25:49.267Z,12.11
2022-09-09T03:28:16.284Z,12.14
2022-09-09T03:30:42.934Z,12.18
2022-09-09T03:33:09.528Z,12.09
2022-09-09T03:35:36.993Z,12.03
2022-09-09T03:38:03.547Z,12.05
2022-09-09T03:40:30.137Z,12.01
2022-09-09T03:42:56.713Z,12.06
2022-09-09T03:45:23.381Z,12.07
2022-09-09T03:47:50.974Z,12.07
2022-09-09T03:50:19.241Z,12.05
2022-09-09T03:52:45.877Z,11.96
2022-09-09T03:55:12.659Z,11.97
2022-09-09T03:57:39.197Z,11.97
2022-09-09T04:00:08.151Z,12.02
2022-09-09T04:02:34.875Z,12.00
2022-09-09T04:05:02.110Z,12.02
2022-09-09T04:07:29.133Z,12.07
2022-09-09T04:09:55.786Z,12.04
2022-09-09T04:12:23.414Z,12.06
2022-09-09T04:14:50.101Z,12.00
2022-09-09T04:17:16.933Z,12.02
2022-09-09T04:19:43.496Z,12.07
2022-09-09T04:22:10.494Z,12.07
2022-09-09T04:24:37.302Z,12.08
2022-09-09T04:27:04.190Z,12.11
2022-09-09T04:29:30.742Z,12.11
2022-09-09T04:31:57.454Z,12.07
2022-09-09T04:34:24.079Z,11.98
2022-09-09T04:36:52.631Z,11.86
2022-09-09T04:39:19.176Z,11.84
2022-09-09T04:41:45.707Z,11.87
2022-09-09T04:44:12.280Z,11.95
2022-09-09T04:46:38.921Z,12.00
2022-09-09T04:49:06.434Z,12.05
2022-09-09T04:51:33.028Z,12.01
2022-09-09T04:53:59.638Z,12.01
2022-09-09T04:56:27.944Z,12.02
2022-09-09T04:58:55.289Z,12.04
2022-09-09T05:01:24.297Z,12.06
2022-09-09T05:03:52.801Z,12.12
2022-09-09T05:06:21.682Z,12.18
2022-09-09T05:08:49.486Z,12.26
2022-09-09T05:11:27.881Z,12.38
2022-09-09T05:13:54.971Z,12.45
2022-09-09T05:16:22.430Z,12.53
2022-09-09T05:18:49.975Z,12.66
2022-09-09T05:21:18.021Z,12.77
2022-09-09T05:23:46.262Z,12.91
2022-09-09T05:26:17.606Z,12.94
2022-09-09T05:28:45.264Z,12.96
2022-09-09T05:31:13.828Z,13.10
2022-09-09T05:33:43.980Z,13.15
2022-09-09T05:36:16.542Z,13.19
2022-09-09T05:38:43.685Z,13.30
2022-09-09T05:41:12.231Z,13.37
2022-09-09T05:43:39.783Z,13.42
2022-09-09T05:46:11.819Z,13.45
2022-09-09T05:48:43.550Z,13.45
2022-09-09T05:51:16.693Z,13.36
2022-09-09T05:53:43.920Z,13.36
2022-09-09T05:56:15.192Z,13.37
2022-09-09T05:58:44.751Z,13.44
2022-09-09T06:01:14.849Z,13.49
2022-09-09T06:03:42.786Z,13.56
2022-09-09T06:06:12.970Z,13.60
2022-09-09T06:08:42.056Z,13.77
2022-09-09T06:11:11.695Z,13.78
2022-09-09T06:13:39.889Z,13.88
2022-09-09T06:16:09.785Z,13.91
2022-09-09T06:18:36.438Z,13.99
2022-09-09T06:21:05.772Z,14.04
2022-09-09T06:23:32.534Z,14.11
2022-09-09T06:26:11.040Z,14.16
2022-09-09T06:28:38.331Z,14.20
2022-09-09T06:31:11.176Z,14.23
2022-09-09T06:33:42.590Z,14.27
2022-09-09T06:36:13.573Z,14.25
2022-09-09T06:38:40.369Z,14.27
2022-09-09T06:41:07.019Z,14.28
2022-09-09T06:43:33.660Z,14.36
2022-09-09T06:46:06.462Z,14.48
2022-09-09T06:48:33.661Z,14.52
2022-09-09T06:51:22.601Z,14.61
2022-09-09T06:53:54.433Z,14.61
2022-09-09T06:56:27.510Z,14.66
2022-09-09T06:58:55.593Z,14.69
2022-09-09T07:01:24.782Z,14.74
2022-09-09T07:03:54.050Z,14.75
2022-09-09T07:06:32.518Z,14.68
2022-09-09T07:09:05.923Z,14.73
2022-09-09T07:11:38.364Z,14.74
2022-09-09T07:14:04.800Z,14.68
2022-09-09T07:16:34.539Z,14.76
2022-09-09T07:19:01.681Z,14.75
2022-09-09T07:21:29.834Z,14.83
2022-09-09T07:23:57.512Z,14.77
2022-09-09T07:26:27.319Z,14.76
2022-09-09T07:28:54.609Z,14.68
2022-09-09T07:31:33.264Z,14.75
2022-09-09T07:34:00.925Z,14.81
2022-09-09T07:36:33.387Z,14.90
2022-09-09T07:39:11.984Z,14.94
2022-09-09T07:41:46.262Z,14.89
2022-09-09T07:44:15.778Z,14.79
2022-09-09T07:46:42.950Z,14.78
2022-09-09T07:49:11.040Z,14.72
2022-09-09T07:51:40.393Z,14.64
2022-09-09T07:54:10.344Z,14.67
2022-09-09T07:56:40.174Z,14.71
2022-09-09T07:59:08.150Z,14.78
2022-09-09T08:01:49.342Z,14.96
2022-09-09T08:04:18.597Z,15.02
2022-09-09T08:06:57.975Z,15.16
2022-09-09T08:09:28.057Z,15.31
2022-09-09T08:11:54.623Z,15.37
2022-09-09T08:14:21.191Z,15.35
2022-09-09T08:16:50.139Z,15.47
2022-09-09T08:19:17.673Z,15.47
2022-09-09T08:21:45.400Z,15.48
2022-09-09T08:24:13.545Z,15.46
2022-09-09T08:26:42.773Z,15.42
2022-09-09T08:29:11.224Z,15.39
2022-09-09T08:31:40.474Z,15.47
2022-09-09T08:34:08.300Z,15.48
2022-09-09T08:36:39.323Z,15.50
2022-09-09T08:39:08.272Z,15.55
2022-09-09T08:42:08.287Z,15.75
2022-09-09T08:45:10.370Z,15.88
2022-09-09T08:48:01.411Z,16.01
2022-09-09T08:50:32.638Z,15.79
2022-09-09T08:53:27.727Z,15.54
2022-09-09T08:55:59.766Z,15.50
2022-09-09T08:58:31.725Z,15.41
2022-09-09T09:01:47.441Z,15.30
2022-09-09T09:04:35.557Z,15.33
2022-09-09T09:07:29.542Z,15.21
2022-09-09T09:10:40.996Z,15.21
2022-09-09T09:13:17.150Z,15.19
2022-09-09T09:15:48.134Z,15.15
2022-09-09T09:18:16.878Z,15.15
2022-09-09T09:21:13.720Z,15.22
2022-09-09T09:23:59.131Z,15.32
2022-09-09T09:26:31.902Z,15.42
2022-09-09T09:29:00.232Z,15.47
2022-09-09T09:31:28.012Z,15.51
2022-09-09T09:33:56.690Z,15.54
2022-09-09T09:36:34.103Z,15.63
2022-09-09T09:41:49.750Z,15.79
2022-09-09T09:44:31.598Z,15.91
2022-09-09T09:47:22.811Z,15.99
2022-09-09T09:50:20.287Z,16.12
2022-09-09T09:53:07.561Z,16.11
2022-09-09T09:55:36.134Z,16.22
2022-09-09T09:58:07.381Z,16.31
2022-09-09T10:00:37.678Z,16.37
2022-09-09T10:03:22.420Z,16.47
2022-09-09T10:05:49.090Z,16.37
2022-09-09T10:08:17.680Z,16.20
2022-09-09T10:10:57.442Z,16.16
2022-09-09T10:14:07.192Z,16.25
2022-09-09T10:17:05.437Z,16.37
2022-09-09T10:19:35.118Z,16.48
2022-09-09T10:22:07.649Z,16.53
2022-09-09T10:24:51.129Z,16.80
2022-09-09T10:27:52.279Z,17.03
2022-09-09T10:30:34.673Z,17.21
2022-09-09T10:33:14.498Z,17.30
2022-09-09T10:36:09.550Z,17.35
2022-09-09T10:38:45.153Z,17.40
2022-09-09T10:41:35.433Z,17.36
2022-09-09T10:44:29.651Z,17.29
2022-09-09T10:47:51.101Z,17.22
2022-09-09T10:54:13.461Z,17.11
2022-09-09T10:56:44.749Z,17.22
2022-09-09T10:59:17.762Z,17.36
2022-09-09T11:01:59.430Z,17.53
2022-09-09T11:04:35.430Z,17.78
2022-09-09T11:07:12.035Z,18.07
2022-09-09T11:09:46.778Z,18.15
2022-09-09T11:12:20.003Z,18.27
2022-09-09T11:15:02.715Z,18.33
2022-09-09T11:17:43.861Z,18.34
2022-09-09T11:20:14.826Z,18.49
2022-09-09T11:22:49.758Z,18.44
2022-09-09T11:25:26.123Z,18.49
2022-09-09T11:28:45.692Z,18.52
2022-09-09T11:31:32.858Z,18.59
2022-09-09T11:34:20.028Z,18.50
2022-09-09T11:37:05.840Z,18.47
2022-09-09T11:39:50.830Z,18.47
2022-09-09T11:42:21.505Z,18.44
2022-09-09T11:44:48.710Z,18.44
2022-09-09T11:47:31.349Z,18.40
2022-09-09T11:50:37.610Z,18.34
2022-09-09T11:53:24.609Z,18.32
2022-09-09T11:56:10.801Z,18.28
2022-09-09T11:58:57.045Z,18.16
2022-09-09T12:01:31.035Z,18.22
2022-09-09T12:04:21.816Z,18.20
2022-09-09T12:07:33.710Z,18.21
2022-09-09T12:10:26.574Z,18.35
2022-09-09T12:12:53.556Z,18.39
2022-09-09T12:15:31.633Z,18.28
2022-09-09T12:18:03.906Z,17.96
2022-09-09T12:20:52.146Z,17.83
2022-09-09T12:23:38.893Z,17.89
2022-09-09T12:26:45.664Z,17.91
2022-09-09T12:29:37.091Z,17.96
2022-09-09T12:32:19.714Z,17.86
2022-09-09T12:35:10.637Z,17.80
2022-09-09T12:37:59.829Z,17.65
2022-09-09T12:40:33.308Z,17.58
2022-09-09T12:43:02.260Z,17.40
2022-09-09T12:45:34.083Z,17.25
2022-09-09T12:48:18.485Z,17.28
2022-09-09T12:50:51.613Z,17.26
2022-09-09T12:53:27.428Z,17.32
2022-09-09T12:55:59.105Z,17.28
2022-09-09T12:58:27.165Z,17.05
2022-09-09T13:00:57.451Z,16.84
2022-09-09T13:03:25.855Z,16.80
2022-09-09T13:05:54.307Z,16.81
2022-09-09T13:08:21.584Z,16.80
2022-09-09T13:11:00.226Z,16.69
2022-09-09T13:13:34.471Z,16.66
2022-09-09T13:16:02.601Z,16.63
2022-09-09T13:18:40.399Z,16.60
2022-09-09T13:21:07.282Z,16.65
2022-09-09T13:23:36.315Z,16.69
2022-09-09T13:26:22.546Z,16.64
2022-09-09T13:28:49.633Z,16.61
2022-09-09T13:31:46.139Z,16.60
2022-09-09T13:34:30.592Z,16.61
2022-09-09T13:37:09.119Z,16.45
2022-09-09T13:39:38.600Z,16.46
2022-09-09T13:42:07.334Z,16.47
2022-09-09T13:44:42.749Z,16.54
2022-09-09T13:47:24.254Z,16.61
2022-09-09T13:49:50.877Z,16.66
2022-09-09T13:52:19.868Z,16.73
2022-09-09T13:54:51.174Z,16.60
2022-09-09T13:57:26.156Z,16.63
2022-09-09T14:00:11.325Z,16.61
2022-09-09T14:02:39.768Z,16.60
2022-09-09T14:05:06.918Z,16.69
2022-09-09T14:07:33.860Z,16.64
2022-09-09T14:10:01.197Z,16.65
2022-09-09T14:12:28.087Z,16.72
2022-09-09T14:14:54.726Z,16.70
2022-09-09T14:17:21.359Z,16.65
2022-09-09T14:19:48.122Z,16.62
2022-09-09T14:22:15.110Z,16.62
2022-09-09T14:24:41.928Z,16.64
2022-09-09T14:27:08.585Z,16.63
2022-09-09T14:29:35.164Z,16.66
2022-09-09T14:32:02.049Z,16.69
2022-09-09T14:34:28.682Z,16.68
2022-09-09T14:36:55.250Z,16.64
2022-09-09T14:39:21.837Z,16.64
2022-09-09T14:41:48.396Z,16.61
2022-09-09T14:44:14.958Z,16.58
2022-09-09T14:46:43.379Z,16.62
2022-09-09T14:49:11.395Z,16.67
2022-09-09T14:51:37.953Z,16.66
2022-09-09T14:54:04.552Z,16.60
2022-09-09T14:56:35.485Z,16.55
2022-09-09T14:59:02.973Z,16.48
2022-09-09T15:01:30.838Z,16.47
2022-09-09T15:04:03.841Z,16.42
2022-09-09T15:06:34.007Z,16.33
2022-09-09T15:09:01.387Z,16.32
2022-09-09T15:11:31.832Z,16.31
2022-09-09T15:14:00.422Z,16.27
2022-09-09T15:16:29.356Z,16.29
2022-09-09T15:18:57.955Z,16.27
2022-09-09T15:21:27.430Z,16.29
2022-09-09T15:23:54.382Z,16.21
2022-09-09T15:26:21.949Z,16.16
2022-09-09T15:28:50.662Z,16.11
2022-09-09T15:31:22.657Z,16.11
2022-09-09T15:33:50.896Z,16.13
2022-09-09T15:36:27.515Z,16.12
2022-09-09T15:38:54.053Z,16.10
2022-09-09T15:41:22.709Z,16.07
2022-09-09T15:43:51.508Z,16.10
2022-09-09T15:46:39.975Z,16.07
2022-09-09T15:49:18.358Z,16.05
2022-09-09T15:51:48.050Z,16.03
2022-09-09T15:54:18.420Z,16.00
2022-09-09T15:56:47.553Z,15.98
2022-09-09T15:59:15.718Z,15.94
2022-09-09T16:01:43.223Z,15.94
2022-09-09T16:04:10.632Z,15.92
2022-09-09T16:06:37.724Z,15.92
2022-09-09T16:09:06.581Z,15.91
2022-09-09T16:11:37.367Z,15.90
2022-09-09T16:14:05.032Z,15.92
2022-09-09T16:16:32.093Z,15.93
2022-09-09T16:19:01.939Z,15.93
2022-09-09T16:21:33.901Z,15.94
2022-09-09T16:24:06.074Z,15.99
2022-09-09T16:26:34.883Z,16.03
2022-09-09T16:29:02.332Z,16.00
2022-09-09T16:31:30.437Z,16.00
2022-09-09T16:33:57.266Z,16.00
2022-09-09T16:36:26.667Z,16.02
2022-09-09T16:38:58.445Z,16.02
2022-09-09T16:41:26.903Z,16.01
2022-09-09T16:44:13.555Z,16.01
2022-09-09T16:46:42.680Z,16.00
2022-09-09T16:49:11.765Z,15.92
2022-09-09T16:51:42.504Z,15.92
2022-09-09T16:54:10.276Z,15.95
2022-09-09T16:56:40.515Z,15.94
2022-09-09T16:59:12.779Z,15.94
2022-09-09T17:01:41.844Z,15.95
2022-09-09T17:04:21.321Z,15.94
2022-09-09T17:06:53.235Z,15.92
2022-09-09T17:09:21.004Z,15.87
2022-09-09T17:11:48.923Z,15.81
2022-09-09T17:14:18.489Z,15.77
2022-09-09T17:16:45.489Z,15.70
2022-09-09T17:19:13.231Z,15.69
2022-09-09T17:22:00.002Z,15.67
2022-09-09T17:24:28.056Z,15.63
2022-09-09T17:26:55.335Z,15.61
2022-09-09T17:29:22.728Z,15.60
2022-09-09T17:31:49.480Z,15.58
2022-09-09T17:34:16.076Z,15.58
2022-09-09T17:36:42.705Z,15.61
2022-09-09T17:39:09.631Z,15.61
2022-09-09T17:41:38.970Z,15.55
2022-09-09T17:44:10.561Z,15.48
2022-09-09T17:46:41.369Z,15.44
2022-09-09T17:49:13.956Z,15.41
2022-09-09T17:51:42.571Z,15.43
2022-09-09T17:54:17.284Z,15.44
2022-09-09T17:56:46.406Z,15.44
2022-09-09T17:59:14.842Z,15.40
2022-09-09T18:01:44.994Z,15.36
2022-09-09T18:04:16.487Z,15.33
2022-09-09T18:06:46.433Z,15.31
2022-09-09T18:09:18.736Z,15.31
2022-09-09T18:11:47.702Z,15.32
2022-09-09T18:14:18.148Z,15.29
2022-09-09T18:16:45.743Z,15.26
2022-09-09T18:19:14.958Z,15.18
2022-09-09T18:21:43.835Z,15.12
2022-09-09T18:24:11.844Z,15.09
2022-09-09T18:26:41.942Z,15.07
2022-09-09T18:29:14.272Z,15.08
2022-09-09T18:31:42.473Z,15.09
2022-09-09T18:34:11.262Z,15.00
2022-09-09T18:36:46.890Z,14.94
2022-09-09T18:39:16.457Z,14.91
2022-09-09T18:41:46.052Z,14.90
2022-09-09T18:44:19.256Z,14.89
2022-09-09T18:46:47.371Z,14.92
2022-09-09T18:49:15.353Z,14.97
2022-09-09T18:51:44.476Z,14.97
2022-09-09T18:54:14.487Z,14.96
2022-09-09T18:56:41.370Z,14.99
2022-09-09T18:59:11.236Z,14.92
2022-09-09T19:01:38.185Z,14.89
2022-09-09T19:04:06.749Z,14.85
2022-09-09T19:06:37.087Z,14.88
2022-09-09T19:09:04.335Z,14.91
2022-09-09T19:11:32.310Z,14.92
2022-09-09T19:14:01.637Z,14.97
2022-09-09T19:16:30.836Z,15.01
2022-09-09T19:19:06.829Z,15.04
2022-09-09T19:21:36.555Z,15.02
2022-09-09T19:24:07.579Z,15.07
2022-09-09T19:26:40.691Z,15.10
2022-09-09T19:29:15.314Z,15.01
2022-09-09T19:32:09.454Z,15.01
2022-09-09T19:34:32.781Z,15.01
2022-09-09T19:37:02.611Z,15.02
2022-09-09T19:39:29.518Z,15.03
2022-09-09T19:41:56.308Z,15.04
2022-09-09T19:44:22.782Z,15.04
2022-09-09T19:46:50.045Z,15.03
2022-09-09T19:49:17.306Z,15.04
2022-09-09T19:51:44.276Z,14.98
2022-09-09T19:54:14.523Z,14.96
2022-09-09T19:56:42.888Z,14.91
2022-09-09T19:59:12.637Z,14.86
2022-09-09T20:01:44.536Z,14.81
2022-09-09T20:04:12.713Z,14.85
2022-09-09T20:06:41.026Z,14.84
2022-09-09T20:09:10.869Z,14.81
2022-09-09T20:11:39.149Z,14.78
2022-09-09T20:14:05.806Z,14.76
2022-09-09T20:16:32.939Z,14.79
2022-09-09T20:19:02.185Z,14.79
2022-09-09T20:21:35.107Z,14.79
2022-09-09T20:24:05.857Z,14.77
2022-09-09T20:26:35.172Z,14.77
2022-09-09T20:29:05.384Z,14.74
2022-09-09T20:31:40.440Z,14.74
2022-09-09T20:34:10.037Z,14.74
2022-09-09T20:36:37.790Z,14.74
2022-09-09T20:39:08.218Z,14.75
2022-09-09T20:41:37.031Z,14.76
2022-09-09T20:44:14.280Z,14.74
2022-09-09T20:46:52.995Z,14.75
2022-09-09T20:49:21.911Z,14.75
2022-09-09T20:51:50.349Z,14.74
2022-09-09T20:54:19.997Z,14.68
2022-09-09T20:56:48.347Z,14.67
2022-09-09T20:59:17.573Z,14.68
2022-09-09T21:01:45.015Z,14.71
2022-09-09T21:04:12.459Z,14.63
2022-09-09T21:06:39.531Z,14.57
2022-09-09T21:09:06.504Z,14.53
2022-09-09T21:11:34.973Z,14.45
2022-09-09T21:14:02.524Z,14.42
2022-09-09T21:16:29.202Z,14.37
2022-09-09T21:18:55.965Z,14.32
2022-09-09T21:21:22.872Z,14.26
2022-09-09T21:23:50.531Z,14.20
2022-09-09T21:26:20.500Z,14.19
2022-09-09T21:28:47.065Z,14.22
2022-09-09T21:31:15.242Z,14.22
2022-09-09T21:33:43.001Z,14.08
2022-09-09T21:36:11.389Z,14.03
2022-09-09T21:38:40.341Z,14.01
2022-09-09T21:41:13.329Z,13.99
2022-09-09T21:43:42.017Z,14.00
2022-09-09T21:46:10.414Z,14.03
2022-09-09T21:48:37.443Z,14.07
2022-09-09T21:51:10.312Z,14.08
2022-09-09T21:53:37.534Z,14.12
2022-09-09T21:56:07.063Z,14.13
2022-09-09T21:58:34.736Z,14.13
2022-09-09T22:01:01.973Z,14.17
2022-09-09T22:03:28.603Z,14.19
2022-09-09T22:05:55.176Z,14.25
2022-09-09T22:08:21.853Z,14.21
2022-09-09T22:10:48.558Z,14.30
2022-09-09T22:13:17.100Z,14.33
2022-09-09T22:15:45.747Z,14.28
2022-09-09T22:18:14.182Z,14.31
2022-09-09T22:20:43.942Z,14.26
2022-09-09T22:23:14.317Z,14.26
2022-09-09T22:25:41.159Z,14.31
2022-09-09T22:28:09.345Z,14.37
2022-09-09T22:30:36.304Z,14.37
2022-09-09T22:33:02.969Z,14.38
2022-09-09T22:35:29.544Z,14.41
2022-09-09T22:37:57.059Z,14.40
2022-09-09T22:40:23.961Z,14.37
2022-09-09T22:42:52.983Z,14.36
2022-09-09T22:45:20.895Z,14.44
2022-09-09T22:47:47.902Z,14.43
2022-09-09T22:50:14.905Z,14.43
2022-09-09T22:52:41.513Z,14.34
2022-09-09T22:55:09.362Z,14.29
2022-09-09T22:57:36.373Z,14.21
2022-09-09T23:00:08.837Z,14.19
2022-09-09T23:02:40.682Z,14.17
2022-09-09T23:05:08.817Z,14.15
2022-09-09T23:07:36.714Z,14.11
2022-09-09T23:10:05.375Z,14.07
2022-09-09T23:12:32.158Z,14.05
2022-09-09T23:14:58.934Z,14.06
2022-09-09T23:17:26.066Z,14.05
2022-09-09T23:19:57.070Z,14.02
2022-09-09T23:22:24.603Z,13.99
2022-09-09T23:24:54.058Z,14.00
2022-09-09T23:27:24.177Z,13.95
2022-09-09T23:29:51.740Z,13.97
2022-09-09T23:32:18.547Z,13.96
2022-09-09T23:34:47.260Z,13.97
2022-09-09T23:37:13.918Z,13.96
2022-09-09T23:39:40.910Z,13.92
2022-09-09T23:42:11.790Z,13.93
2022-09-09T23:44:39.543Z,13.92
2022-09-09T23:47:07.456Z,14.00
2022-09-09T23:49:35.033Z,14.00
2022-09-09T23:52:05.350Z,13.92
2022-09-09T23:54:34.147Z,13.89
2022-09-09T23:57:02.350Z,13.87
2022-09-09T23:59:29.935Z,13.81
